Time;durP1;ratioP1;P1;durP2;ratioP2;P2;SDS_P1;SDS_P2;PMS_P1;PMS_P2;Temp;Humidity;BMP_temperature;BMP_pressure;BME280_temperature;BME280_humidity;BME280_pressure;Samples;Min_cycle;Max_cycle;Signal;HPM_P1;HPM_P2
2023/07/20 00:00:23;;;;;;;2.05;0.70;;;17.50;99.90;;;16.37;100.00;97526.06;4941493;28;20043;-80
2023/07/20 00:02:52;;;;;;;3.55;1.00;;;17.50;99.90;;;16.30;100.00;97534.31;4956127;28;20071;-80
2023/07/20 00:05:21;;;;;;;2.33;0.85;;;17.40;99.90;;;16.14;100.00;97531.03;4956031;28;20047;-80
2023/07/20 00:07:51;;;;;;;2.85;0.80;;;17.30;99.90;;;16.17;100.00;97530.84;4948228;28;20199;-79
2023/07/20 00:10:18;;;;;;;3.83;1.00;;;17.30;99.90;;;16.11;100.00;97539.09;4956311;28;20047;-80
2023/07/20 00:12:47;;;;;;;3.58;1.10;;;17.20;99.90;;;16.06;100.00;97535.94;4956606;28;20047;-79
2023/07/20 00:15:14;;;;;;;3.70;0.90;;;17.20;99.90;;;16.18;100.00;97540.38;4940628;28;20043;-79
2023/07/20 00:17:44;;;;;;;4.10;0.90;;;17.20;99.90;;;16.12;100.00;97539.94;4957244;28;20043;-79
2023/07/20 00:20:13;;;;;;;3.28;1.13;;;17.20;99.90;;;16.21;100.00;97541.94;4960728;28;20058;-79
2023/07/20 00:22:40;;;;;;;5.10;1.00;;;17.20;99.90;;;16.14;100.00;97544.13;4960116;28;20051;-79
2023/07/20 00:25:08;;;;;;;4.50;0.95;;;17.20;99.90;;;16.06;100.00;97539.41;4958101;28;20055;-79
2023/07/20 00:27:35;;;;;;;5.45;1.02;;;17.20;99.90;;;15.85;100.00;97544.25;4974212;28;20106;-80
2023/07/20 00:30:20;;;;;;;2.92;1.00;;;;;;;15.77;100.00;97541.28;4968901;28;20546;-79
2023/07/20 00:32:47;;;;;;;3.22;1.00;;;16.90;99.90;;;15.82;100.00;97544.44;4958287;28;20554;-78
2023/07/20 00:35:14;;;;;;;4.13;1.15;;;16.80;99.90;;;15.89;100.00;97544.88;4957277;28;20043;-79
2023/07/20 00:37:41;;;;;;;4.32;1.10;;;16.90;99.90;;;15.79;100.00;97542.03;4957776;28;20059;-78
2023/07/20 00:40:12;;;;;;;2.70;1.02;;;16.90;99.90;;;15.80;100.00;97548.94;4956461;28;20054;-80
2023/07/20 00:42:39;;;;;;;6.63;1.02;;;16.90;99.90;;;15.54;100.00;97552.34;4971984;28;20513;-79
2023/07/20 00:45:07;;;;;;;3.55;0.98;;;16.70;99.90;;;15.27;100.00;97563.59;4961215;28;20051;-79
2023/07/20 00:47:34;;;;;;;4.18;1.08;;;16.40;99.90;;;15.13;100.00;97563.63;4941195;28;20059;-79
2023/07/20 00:50:02;;;;;;;2.83;0.70;;;16.10;99.90;;;15.01;100.00;97565.19;4959006;28;20133;-79
2023/07/20 00:52:30;;;;;;;3.40;1.00;;;15.90;99.90;;;14.93;100.00;97562.19;4954636;28;20126;-80
2023/07/20 00:54:57;;;;;;;2.75;1.15;;;15.80;99.90;;;14.86;100.00;97569.56;4954942;28;20047;-79
2023/07/20 00:57:25;;;;;;;4.72;1.00;;;15.70;99.90;;;15.00;100.00;97566.94;4958810;28;20051;-78
2023/07/20 00:59:53;;;;;;;4.47;1.20;;;15.80;99.90;;;15.07;100.00;97564.81;4957988;28;20055;-79
2023/07/20 01:02:20;;;;;;;2.97;0.90;;;15.90;99.90;;;15.08;100.00;97568.28;4958144;28;20047;-79
2023/07/20 01:04:48;;;;;;;4.63;1.15;;;16.00;99.90;;;15.06;100.00;97563.97;4969659;28;20078;-79
2023/07/20 01:07:29;;;;;;;4.07;1.30;;;16.10;99.90;;;15.02;100.00;97569.47;4974520;28;20055;-79
2023/07/20 01:10:29;;;;;;;3.85;0.90;;;16.00;99.90;;;14.90;100.00;97575.47;4968908;28;20491;-79
2023/07/20 01:12:57;;;;;;;6.13;1.20;;;15.90;99.90;;;14.81;100.00;97563.78;4951858;28;20082;-80
2023/07/20 01:15:24;;;;;;;3.08;1.15;;;15.80;99.90;;;14.64;100.00;97567.38;4947301;28;20050;-79
2023/07/20 01:17:52;;;;;;;2.70;1.00;;;15.60;99.90;;;14.61;100.00;97570.19;4959082;28;20054;-78
2023/07/20 01:20:21;;;;;;;6.47;1.20;;;15.70;99.90;;;14.49;100.00;97578.72;4957113;28;20126;-80
2023/07/20 01:23:26;;;;;;;6.40;1.25;;;15.70;99.90;;;14.47;100.00;97573.56;4960889;28;20057;-79
2023/07/20 01:26:42;;;;;;;2.90;1.15;;;15.70;99.90;;;14.47;100.00;97584.03;4961424;28;20043;-79
2023/07/20 01:29:39;;;;;;;3.58;1.00;;;15.60;99.90;;;14.29;100.00;97579.88;4910379;28;20454;-79
2023/07/20 01:32:08;;;;;;;4.28;1.27;;;15.40;99.90;;;14.31;100.00;97589.28;4956212;28;20764;-79
2023/07/20 01:34:36;;;;;;;3.20;1.15;;;15.30;99.90;;;14.24;100.00;97580.13;4955695;28;20121;-80
2023/07/20 01:37:07;;;;;;;4.75;1.10;;;15.20;99.90;;;14.11;100.00;97579.16;4937251;29;20087;-79
2023/07/20 01:39:36;;;;;;;2.42;1.00;;;15.10;99.90;;;14.27;100.00;97584.34;4957221;28;20047;-80
2023/07/20 01:42:03;;;;;;;4.70;1.20;;;15.20;99.90;;;14.29;100.00;97578.09;4935147;28;20048;-79
2023/07/20 01:44:31;;;;;;;2.63;0.90;;;15.30;99.90;;;14.13;100.00;97577.28;4942970;28;20047;-80
2023/07/20 01:46:59;;;;;;;4.78;1.00;;;15.30;99.90;;;13.99;100.00;97576.31;4956041;28;20057;-78
2023/07/20 01:49:25;;;;;;;4.57;1.02;;;15.10;99.90;;;13.91;100.00;97580.25;4956458;28;20883;-80
2023/07/20 01:51:53;;;;;;;2.42;1.05;;;15.00;99.90;;;13.92;100.00;97579.34;4954973;28;20055;-79
2023/07/20 01:54:21;;;;;;;4.93;1.33;;;14.80;99.90;;;13.76;100.00;97588.03;4943025;28;20109;-79
2023/07/20 01:56:48;;;;;;;2.97;1.17;;;14.70;99.90;;;13.75;100.00;97591.56;4969100;28;20043;-80
2023/07/20 01:59:15;;;;;;;6.50;1.20;;;14.60;99.90;;;13.73;100.00;97598.63;4955300;28;20106;-79
2023/07/20 02:01:44;;;;;;;4.70;1.58;;;14.50;99.90;;;13.73;100.00;97593.41;4953085;28;20039;-79
2023/07/20 02:04:11;;;;;;;4.13;1.10;;;14.50;99.90;;;13.60;100.00;97595.00;4936261;28;20055;-78
2023/07/20 02:06:38;;;;;;;6.03;1.20;;;14.50;99.90;;;13.59;100.00;97599.41;4960456;28;20051;-79
2023/07/20 02:09:05;;;;;;;6.45;1.40;;;14.40;99.90;;;13.55;100.00;97605.69;4961362;28;20162;-79
2023/07/20 02:11:33;;;;;;;3.90;1.20;;;14.40;99.90;;;13.49;100.00;97606.03;4956069;28;20857;-79
2023/07/20 02:14:00;;;;;;;5.22;1.45;;;14.30;99.90;;;13.36;100.00;97618.03;4941390;28;20065;-79
2023/07/20 02:16:27;;;;;;;3.17;1.20;;;14.30;99.90;;;13.39;100.00;97620.50;4959322;28;20128;-79
2023/07/20 02:18:56;;;;;;;3.53;1.25;;;14.40;99.90;;;13.53;100.00;97617.13;4956287;28;20051;-79
2023/07/20 02:21:25;;;;;;;3.45;1.20;;;14.50;99.90;;;13.62;100.00;97615.81;4956713;28;20126;-80
2023/07/20 02:23:52;;;;;;;3.88;1.15;;;14.50;99.90;;;13.61;100.00;97612.34;4954848;28;20075;-79
2023/07/20 02:26:19;;;;;;;3.28;1.10;;;14.40;99.90;;;13.59;100.00;97615.03;4965975;28;20061;-79
2023/07/20 02:28:46;;;;;;;4.35;1.33;;;14.50;99.90;;;13.67;100.00;97619.84;4952914;28;20058;-79
2023/07/20 02:31:14;;;;;;;7.47;1.73;;;14.60;99.90;;;13.66;100.00;97620.78;4950900;28;20047;-79
2023/07/20 02:33:41;;;;;;;3.97;1.25;;;14.70;99.90;;;13.81;100.00;97622.53;4951955;28;20058;-79
2023/07/20 02:36:10;;;;;;;3.83;1.63;;;14.80;99.90;;;13.96;100.00;97620.84;4955776;28;20055;-79
2023/07/20 02:38:38;;;;;;;5.43;1.10;;;14.80;99.90;;;13.91;100.00;97616.78;4955041;28;20138;-79
2023/07/20 02:41:05;;;;;;;4.38;1.35;;;14.90;99.90;;;13.92;100.00;97615.88;4958248;28;20078;-79
2023/07/20 02:43:32;;;;;;;5.95;1.27;;;14.90;99.90;;;13.81;100.00;97612.09;4965261;28;20540;-79
2023/07/20 02:45:59;;;;;;;4.93;1.20;;;14.90;99.90;;;13.81;100.00;97616.47;4948920;28;20142;-79
2023/07/20 02:48:27;;;;;;;3.30;1.13;;;14.90;99.90;;;13.95;100.00;97623.53;4957001;28;20055;-79
2023/07/20 02:50:55;;;;;;;3.97;1.40;;;14.90;99.90;;;13.81;100.00;97619.91;4952707;28;20063;-80
2023/07/20 02:53:23;;;;;;;6.35;1.40;;;15.00;99.90;;;13.96;100.00;97620.84;4953275;28;20109;-80
2023/07/20 02:55:52;;;;;;;3.85;0.93;;;15.00;99.90;;;14.04;100.00;97620.41;4940071;29;20621;-79
2023/07/20 02:58:19;;;;;;;11.55;1.58;;;15.10;99.90;;;14.10;100.00;97611.41;4948787;28;20039;-79
2023/07/20 03:00:47;;;;;;;3.78;1.55;;;15.10;99.90;;;14.04;100.00;97607.34;4962615;28;20050;-79
2023/07/20 03:03:17;;;;;;;6.53;1.73;;;15.10;99.90;;;14.06;100.00;97607.28;4954505;28;20043;-79
2023/07/20 03:05:44;;;;;;;3.25;1.10;;;15.20;99.90;;;14.23;100.00;97612.38;4959255;28;20043;-80
2023/07/20 03:08:11;;;;;;;3.83;1.40;;;15.20;99.90;;;14.40;100.00;97608.81;4954301;28;20806;-80
2023/07/20 03:10:41;;;;;;;4.40;1.30;;;15.30;99.90;;;14.31;100.00;97604.13;4956621;28;20584;-79
2023/07/20 03:13:08;;;;;;;3.15;1.30;;;15.20;99.90;;;14.19;100.00;97606.50;4953943;28;20078;-79
2023/07/20 03:15:35;;;;;;;3.95;1.42;;;15.20;99.90;;;14.27;100.00;97606.06;4955933;28;20055;-80
2023/07/20 03:18:04;;;;;;;4.57;1.27;;;15.20;99.90;;;14.21;100.00;97602.03;4954427;28;20535;-79
2023/07/20 03:20:31;;;;;;;5.18;1.42;;;15.30;99.90;;;14.31;100.00;97604.13;4953472;28;20047;-79
2023/07/20 03:22:59;;;;;;;4.22;1.40;;;15.30;99.90;;;14.44;100.00;97605.09;4953934;28;20174;-79
2023/07/20 03:25:26;;;;;;;4.95;1.42;;;15.40;99.90;;;14.07;100.00;97616.78;4938897;28;20055;-80
2023/07/20 03:27:54;;;;;;;3.53;1.30;;;15.20;99.90;;;13.81;100.00;97629.50;4930468;28;20051;-80
2023/07/20 03:30:23;;;;;;;4.75;1.25;;;14.90;99.90;;;13.70;100.00;97629.25;4958645;28;20658;-80
2023/07/20 03:32:50;;;;;;;7.10;1.50;;;14.80;99.90;;;13.80;100.00;97638.28;4956275;28;20254;-80
2023/07/20 03:35:17;;;;;;;8.43;1.92;;;14.80;99.90;;;13.81;100.00;97638.16;4924446;28;20051;-79
2023/07/20 03:37:45;;;;;;;2.47;1.17;;;14.80;99.90;;;13.83;100.00;97632.88;4957958;28;20129;-80
2023/07/20 03:40:14;;;;;;;5.78;1.45;;;14.90;99.90;;;13.93;100.00;97641.03;4955977;28;20055;-79
2023/07/20 03:42:42;;;;;;;3.60;1.30;;;14.80;99.90;;;14.13;100.00;97638.16;4939029;28;20075;-79
2023/07/20 03:45:09;;;;;;;5.63;1.52;;;14.90;99.90;;;13.93;100.00;97630.59;4956342;28;20051;-79
2023/07/20 03:47:37;;;;;;;5.55;1.45;;;14.90;99.90;;;13.81;100.00;97635.56;4955279;28;20051;-79
2023/07/20 03:50:05;;;;;;;4.43;1.40;;;14.90;99.90;;;13.69;100.00;97645.84;4958259;28;20468;-78
2023/07/20 03:52:32;;;;;;;4.65;2.05;;;14.70;99.90;;;13.67;100.00;97645.09;4966282;28;20058;-78
2023/07/20 03:55:01;;;;;;;3.83;1.52;;;14.60;99.90;;;13.69;100.00;97644.06;4955485;28;20047;-79
2023/07/20 03:57:32;;;;;;;7.65;2.33;;;14.60;99.90;;;13.70;100.00;97648.34;4953334;28;20047;-79
2023/07/20 04:00:00;;;;;;;3.83;1.38;;;14.60;99.90;;;13.64;100.00;97651.31;4957246;28;20104;-78
2023/07/20 04:02:27;;;;;;;7.32;1.83;;;14.70;99.90;;;13.58;100.00;97656.84;4958885;28;20047;-78
2023/07/20 04:04:54;;;;;;;6.35;2.13;;;14.60;99.90;;;13.63;100.00;97657.44;4960362;28;20055;-79
2023/07/20 04:07:22;;;;;;;5.40;1.73;;;14.50;99.90;;;13.53;100.00;97656.25;4956490;28;20166;-80
2023/07/20 04:09:49;;;;;;;4.90;1.40;;;14.50;99.90;;;13.60;100.00;97661.06;4957942;28;20047;-79
2023/07/20 04:12:16;;;;;;;7.80;1.80;;;14.60;99.90;;;13.56;100.00;97662.13;4940198;28;20067;-79
2023/07/20 04:14:43;;;;;;;3.92;1.50;;;14.60;99.90;;;13.51;100.00;97668.53;4959226;28;20059;-79
2023/07/20 04:17:13;;;;;;;6.63;1.52;;;14.70;99.90;;;13.63;100.00;97661.81;4959496;28;20110;-79
2023/07/20 04:19:40;;;;;;;4.35;1.83;;;14.70;99.90;;;13.71;100.00;97662.25;4957510;28;20130;-79
2023/07/20 04:22:07;;;;;;;4.07;1.45;;;14.80;99.90;;;13.69;100.00;97664.09;4957606;28;20111;-79
2023/07/20 04:24:34;;;;;;;3.50;1.50;;;14.80;99.90;;;13.71;100.00;97659.66;4953397;28;20135;-79
2023/07/20 04:27:02;;;;;;;6.03;1.45;;;14.80;99.90;;;13.77;100.00;97665.34;4940423;29;20120;-79
2023/07/20 04:29:29;;;;;;;4.32;1.85;;;14.90;99.90;;;13.67;100.00;97665.94;4955339;28;20074;-78
2023/07/20 04:31:56;;;;;;;6.70;1.98;;;14.80;99.90;;;13.41;100.00;97662.97;4956200;28;20059;-78
2023/07/20 04:34:24;;;;;;;4.45;1.65;;;14.70;99.90;;;13.51;100.00;97671.13;4956791;28;20054;-79
2023/07/20 04:36:51;;;;;;;6.13;1.70;;;14.60;99.90;;;13.59;100.00;97672.41;4954613;28;20059;-79
2023/07/20 04:39:18;;;;;;;13.15;2.50;;;14.60;99.90;;;13.80;100.00;97667.81;4968157;28;20071;-78
2023/07/20 04:41:58;;;;;;;5.30;1.50;;;14.70;99.90;;;13.97;100.00;97660.81;4967738;28;20078;-79
2023/07/20 04:44:25;;;;;;;5.10;1.42;;;14.80;99.90;;;13.88;100.00;97658.72;4957657;28;20743;-80
2023/07/20 04:46:52;;;;;;;8.50;1.80;;;14.90;99.90;;;13.76;100.00;97648.03;4955150;28;20051;-79
2023/07/20 04:49:19;;;;;;;5.97;1.92;;;14.90;99.90;;;13.88;100.00;97656.13;4958351;28;20051;-79
2023/07/20 04:51:46;;;;;;;6.20;1.95;;;14.70;99.90;;;13.99;100.00;97653.75;4956177;28;20054;-79
2023/07/20 04:54:14;;;;;;;4.03;1.52;;;14.70;99.90;;;13.96;100.00;97657.38;4955362;28;20145;-78
2023/07/20 04:56:41;;;;;;;3.72;1.60;;;14.80;99.90;;;14.09;100.00;97654.09;4955173;28;20043;-79
2023/07/20 04:59:08;;;;;;;6.28;1.75;;;14.90;99.90;;;14.12;100.00;97653.94;4952823;28;20504;-79
2023/07/20 05:01:35;;;;;;;3.40;1.40;;;15.00;99.90;;;14.19;100.00;97650.88;4957571;28;20047;-79
2023/07/20 05:04:05;;;;;;;7.05;2.03;;;15.10;99.90;;;14.21;100.00;97656.03;4955897;28;20082;-79
2023/07/20 05:06:35;;;;;;;5.78;1.60;;;15.10;99.90;;;13.97;100.00;97653.84;4956090;28;20062;-79
2023/07/20 05:09:02;;;;;;;18.23;1.70;;;15.10;99.90;;;14.13;100.00;97659.03;4956251;28;20071;-79
2023/07/20 05:11:29;;;;;;;5.18;2.00;;;14.90;99.90;;;14.27;100.00;97654.81;4956076;28;20043;-79
2023/07/20 05:13:56;;;;;;;3.72;1.63;;;14.80;99.90;;;14.11;100.00;97663.50;4951751;28;20787;-79
2023/07/20 05:16:23;;;;;;;6.32;1.77;;;14.70;99.90;;;14.05;100.00;97663.00;4958017;28;20749;-79
2023/07/20 05:18:51;;;;;;;6.32;1.92;;;14.80;99.90;;;14.14;100.00;97665.09;4962655;28;20079;-79
2023/07/20 05:21:18;;;;;;;4.47;2.05;;;14.90;99.90;;;14.09;100.00;97664.53;4955195;28;20066;-79
2023/07/20 05:23:45;;;;;;;7.50;2.05;;;14.90;99.90;;;14.28;100.00;97667.81;4947212;28;20118;-79
2023/07/20 05:26:12;;;;;;;6.65;2.22;;;14.90;99.90;;;14.38;100.00;97658.50;4915050;28;20051;-79
2023/07/20 05:28:39;;;;;;;4.95;2.20;;;14.90;99.90;;;14.28;100.00;97662.59;4958755;28;20055;-79
2023/07/20 05:31:06;;;;;;;5.18;1.70;;;15.00;99.90;;;14.58;100.00;97659.19;4963121;28;20495;-79
2023/07/20 05:33:33;;;;;;;5.90;2.22;;;15.00;99.90;;;14.54;100.00;97645.44;4960210;28;20118;-79
2023/07/20 05:36:05;;;;;;;4.50;1.63;;;15.00;99.90;;;14.71;100.00;97641.88;4958789;28;20467;-79
2023/07/20 05:38:32;;;;;;;11.68;1.88;;;15.00;99.90;;;14.81;100.00;97648.22;4959956;28;20051;-79
2023/07/20 05:41:03;;;;;;;5.97;1.83;;;15.10;99.90;;;14.89;100.00;97647.78;4958600;28;20078;-80
2023/07/20 05:43:31;;;;;;;3.67;1.58;;;15.20;99.90;;;15.01;100.00;97636.63;4955744;28;20143;-79
2023/07/20 05:45:58;;;;;;;5.20;2.00;;;15.20;99.90;;;15.02;100.00;97640.06;4952103;28;20051;-79
2023/07/20 05:48:25;;;;;;;7.38;2.22;;;15.30;99.90;;;15.02;100.00;97630.44;4968335;28;20055;-80
2023/07/20 05:50:52;;;;;;;4.97;2.00;;;15.30;99.90;;;14.96;100.00;97629.97;4956637;28;20659;-79
2023/07/20 05:53:20;;;;;;;3.97;1.77;;;15.30;99.90;;;14.90;100.00;97636.41;4955881;28;20083;-79
2023/07/20 05:55:55;;;;;;;6.75;1.70;;;15.40;99.90;;;15.29;100.00;97637.56;4955295;28;20055;-79
2023/07/20 05:58:23;;;;;;;6.50;1.90;;;15.30;99.90;;;15.38;100.00;97644.00;4953274;28;20047;-79
2023/07/20 06:00:53;;;;;;;4.93;1.60;;;15.40;99.90;;;15.32;100.00;97644.38;4955326;28;20503;-79
2023/07/20 06:03:22;;;;;;;4.18;1.77;;;15.50;99.90;;;15.33;100.00;97646.91;4958643;28;20093;-78
2023/07/20 06:05:49;;;;;;;7.32;2.17;;;15.60;99.90;;;15.56;100.00;97650.72;4959534;28;20141;-79
2023/07/20 06:08:16;;;;;;;6.13;1.90;;;15.60;99.90;;;15.60;100.00;97648.75;4955392;28;20051;-79
2023/07/20 06:10:43;;;;;;;4.43;1.85;;;15.70;99.90;;;15.48;100.00;97647.72;4952194;28;20118;-79
2023/07/20 06:13:12;;;;;;;5.28;2.28;;;15.80;99.90;;;15.50;100.00;97645.03;4958570;28;20082;-78
2023/07/20 06:15:41;;;;;;;6.03;1.88;;;16.00;99.90;;;15.69;100.00;97649.03;4958595;28;20047;-78
2023/07/20 06:18:08;;;;;;;5.10;1.58;;;16.20;99.90;;;15.96;100.00;97648.25;4958461;28;20051;-79
2023/07/20 06:20:39;;;;;;;8.75;2.03;;;16.30;99.90;;;16.04;100.00;97655.66;4954615;28;20581;-79
2023/07/20 06:23:06;;;;;;;4.20;1.50;;;16.40;99.90;;;16.37;100.00;97646.56;4953836;28;20144;-79
2023/07/20 06:25:34;;;;;;;5.60;1.98;;;16.50;99.90;;;16.40;100.00;97630.63;4958516;28;20050;-79
2023/07/20 06:28:01;;;;;;;4.80;1.70;;;16.60;99.90;;;16.48;100.00;97630.97;4955317;28;20516;-79
2023/07/20 06:30:28;;;;;;;9.32;2.00;;;16.70;99.90;;;16.43;100.00;97630.44;4953229;28;20575;-79
2023/07/20 06:32:56;;;;;;;5.90;1.98;;;16.80;99.90;;;16.70;100.00;97622.53;4952942;28;20047;-78
2023/07/20 06:35:23;;;;;;;5.22;1.77;;;16.90;99.90;;;16.58;100.00;97620.72;4954232;28;20070;-79
2023/07/20 06:37:52;;;;;;;7.38;1.77;;;16.90;99.90;;;16.67;100.00;97626.22;4954341;28;20060;-80
2023/07/20 06:40:20;;;;;;;4.68;1.75;;;17.00;99.90;;;16.71;100.00;97622.41;4922371;28;20055;-80
2023/07/20 06:42:50;;;;;;;6.07;1.83;;;17.10;99.90;;;16.78;100.00;97619.41;4919935;28;20552;-80
2023/07/20 06:45:20;;;;;;;5.35;2.15;;;17.10;99.90;;;16.90;100.00;97611.59;4949840;28;20055;-80
2023/07/20 06:47:47;;;;;;;5.10;1.42;;;17.20;99.90;;;17.18;100.00;97621.97;4955653;28;20052;-80
2023/07/20 06:50:15;;;;;;;6.38;1.30;;;17.10;99.90;;;17.20;100.00;97610.44;4957197;28;20122;-80
2023/07/20 06:52:46;;;;;;;7.55;2.03;;;17.10;99.90;;;17.06;100.00;97615.78;4955591;28;20055;-80
2023/07/20 06:55:13;;;;;;;7.07;1.80;;;17.30;99.90;;;17.26;100.00;97604.75;4955297;28;20047;-81
2023/07/20 06:57:40;;;;;;;6.85;2.38;;;17.40;99.90;;;17.41;100.00;97609.91;4959036;28;20048;-79
2023/07/20 07:00:14;;;;;;;6.07;1.60;;;17.50;99.90;;;17.42;100.00;97611.56;4953778;28;20515;-78
2023/07/20 07:02:41;;;;;;;6.45;1.83;;;17.70;99.90;;;17.56;100.00;97606.16;4956750;28;20055;-78
2023/07/20 07:05:09;;;;;;;9.10;1.55;;;17.70;99.90;;;17.90;100.00;97599.41;4955849;28;20079;-80
2023/07/20 07:07:39;;;;;;;5.60;1.73;;;18.00;99.90;;;17.95;100.00;97594.66;4951831;28;20107;-78
2023/07/20 07:10:08;;;;;;;11.70;1.63;;;18.20;99.90;;;17.71;100.00;97591.97;4952464;28;20080;-80
2023/07/20 07:12:35;;;;;;;4.20;1.40;;;18.30;99.90;;;18.16;100.00;97583.53;4952595;28;20425;-80
2023/07/20 07:15:08;;;;;;;3.83;1.50;;;18.50;99.90;;;18.08;100.00;97584.09;4953815;28;20063;-79
2023/07/20 07:17:35;;;;;;;;;;;18.50;99.90;;;18.03;100.00;97580.97;4952961;28;20051;-80
2023/07/20 07:20:06;;;;;;;10.10;2.47;;;18.60;99.90;;;18.15;100.00;97579.22;4930962;28;19925;-80
2023/07/20 07:22:36;;;;;;;4.22;1.30;;;18.50;99.90;;;17.98;100.00;97577.84;4941709;28;20090;-80
2023/07/20 07:25:04;;;;;;;3.08;1.08;;;18.60;99.90;;;18.05;100.00;97578.25;4936973;28;20412;-79
2023/07/20 07:27:32;;;;;;;3.40;1.17;;;18.40;99.90;;;18.00;100.00;97577.75;4940555;28;20059;-80
2023/07/20 07:29:59;;;;;;;4.90;1.52;;;18.30;99.90;;;18.13;100.00;97571.47;4947735;28;20131;-80
2023/07/20 07:32:26;;;;;;;5.18;1.20;;;18.40;99.90;;;18.18;100.00;97566.72;4926165;28;20864;-79
2023/07/20 07:34:58;;;;;;;5.90;1.48;;;18.40;99.90;;;18.15;100.00;97568.72;4946555;28;20536;-80
2023/07/20 07:37:25;;;;;;;6.05;1.60;;;18.50;99.90;;;18.24;100.00;97573.28;4933914;28;20058;-80
2023/07/20 07:39:52;;;;;;;12.60;1.35;;;18.60;99.90;;;18.21;100.00;97567.44;4961508;28;20054;-81
2023/07/20 07:42:19;;;;;;;5.05;1.42;;;18.50;99.90;;;18.19;100.00;97570.19;4949685;28;20078;-80
2023/07/20 07:44:49;;;;;;;3.33;1.45;;;18.50;99.90;;;18.50;100.00;97570.53;4952004;28;20078;-80
2023/07/20 07:47:17;;;;;;;4.22;1.33;;;18.70;99.90;;;18.89;100.00;97569.34;4915209;28;20161;-80
2023/07/20 07:49:44;;;;;;;11.85;1.70;;;18.90;99.90;;;18.61;100.00;97557.44;4929895;29;20500;-80
2023/07/20 07:52:14;;;;;;;5.97;1.40;;;19.00;99.90;;;18.75;100.00;97566.91;4941178;28;20044;-79
2023/07/20 07:54:41;;;;;;;5.90;1.45;;;19.10;99.90;;;18.56;100.00;97570.88;4947221;28;20047;-79
2023/07/20 07:57:08;;;;;;;3.08;1.08;;;19.00;99.90;;;18.83;100.00;97568.97;4950658;28;20053;-80
2023/07/20 07:59:37;;;;;;;4.35;1.10;;;19.00;99.90;;;18.66;100.00;97573.69;4949473;28;20697;-81
2023/07/20 08:02:05;;;;;;;4.55;1.20;;;19.00;99.90;;;18.94;100.00;97572.44;4946761;28;20055;-80
2023/07/20 08:04:32;;;;;;;5.40;1.42;;;19.10;99.90;;;19.05;100.00;97576.88;4946055;28;20490;-80
2023/07/20 08:07:02;;;;;;;5.50;1.65;;;19.10;99.90;;;18.93;100.00;97575.19;4929754;28;20113;-80
2023/07/20 08:09:30;;;;;;;2.35;1.00;;;19.40;99.90;;;19.16;100.00;97581.34;4949647;28;20055;-80
2023/07/20 08:11:57;;;;;;;5.18;1.40;;;19.50;99.90;;;19.45;100.00;97581.66;4948681;28;20051;-80
2023/07/20 08:14:24;;;;;;;6.47;1.63;;;19.70;99.90;;;19.15;100.00;97574.38;4946516;28;20058;-81
2023/07/20 08:16:53;;;;;;;4.57;1.13;;;19.80;99.90;;;19.07;100.00;97571.50;4946255;28;20058;-79
2023/07/20 08:19:21;;;;;;;5.93;1.65;;;19.70;99.90;;;19.32;100.00;97576.53;4946649;28;20055;-81
2023/07/20 08:21:48;;;;;;;3.25;1.13;;;19.60;99.90;;;19.15;100.00;97569.94;4943222;28;20081;-80
2023/07/20 08:24:16;;;;;;;4.35;1.25;;;19.40;99.90;;;19.39;100.00;97575.09;4946599;28;20138;-80
2023/07/20 08:26:43;;;;;;;6.18;1.45;;;19.70;99.90;;;19.52;100.00;97572.31;4930157;28;20381;-80
2023/07/20 08:29:11;;;;;;;5.13;1.15;;;20.00;99.90;;;19.99;100.00;97574.78;4936586;29;20102;-80
2023/07/20 08:31:37;;;;;;;7.65;1.00;;;20.30;99.90;;;19.93;100.00;97581.38;4941341;28;20681;-79
2023/07/20 08:34:05;;;;;;;4.65;1.17;;;20.20;99.90;;;19.95;100.00;97576.81;4946642;28;20075;-79
2023/07/20 08:36:46;;;;;;;3.20;0.82;;;20.00;99.90;;;19.98;100.00;97581.88;4948497;28;20055;-79
2023/07/20 08:39:13;;;;;;;4.05;1.30;;;20.00;99.90;;;20.56;100.00;97583.31;4953953;28;20055;-80
2023/07/20 08:41:43;;;;;;;4.13;1.10;;;20.10;99.90;;;20.89;100.00;97572.59;4947865;28;20306;-79
2023/07/20 08:44:11;;;;;;;5.35;1.05;;;20.50;99.90;;;21.17;100.00;97577.34;4950811;28;20107;-80
2023/07/20 08:46:42;;;;;;;3.90;1.00;;;20.70;99.90;;;21.37;100.00;97567.66;4946552;28;20065;-79
2023/07/20 08:49:11;;;;;;;5.00;1.02;;;20.70;99.90;;;21.98;100.00;97569.41;4964789;28;20047;-80
2023/07/20 08:51:39;;;;;;;8.13;1.17;;;21.00;99.90;;;22.02;100.00;97570.81;4957982;28;20094;-80
2023/07/20 08:54:08;;;;;;;4.35;1.00;;;21.10;99.90;;;22.07;100.00;97566.75;4950084;28;20055;-80
2023/07/20 08:56:35;;;;;;;3.38;1.13;;;21.20;99.90;;;22.41;100.00;97569.03;4929401;28;20089;-80
2023/07/20 08:59:02;;;;;;;4.47;1.00;;;21.30;99.90;;;22.13;100.00;97560.94;4946695;28;20855;-80
2023/07/20 09:01:30;;;;;;;3.05;1.27;;;21.80;99.90;;;22.49;100.00;97565.69;4945297;28;20087;-79
2023/07/20 09:03:57;;;;;;;3.70;1.20;;;22.00;99.90;;;22.74;100.00;97556.34;4946087;28;20150;-79
2023/07/20 09:06:24;;;;;;;2.03;0.95;;;22.40;99.90;;;22.47;100.00;97560.53;4946741;28;20047;-79
2023/07/20 09:08:53;;;;;;;3.85;1.10;;;22.60;99.90;;;23.26;100.00;97558.56;4951004;28;20064;-79
2023/07/20 09:11:21;;;;;;;5.10;1.20;;;23.10;99.90;;;22.57;100.00;97559.69;4939382;28;20358;-79
2023/07/20 09:14:06;;;;;;;2.67;1.00;;;23.50;99.90;;;23.18;100.00;97559.31;4929456;28;20078;-79
2023/07/20 09:16:52;;;;;;;5.60;0.93;;;23.10;99.90;;;23.59;100.00;97550.06;4944639;28;20464;-79
2023/07/20 09:19:20;;;;;;;4.07;1.05;;;23.20;99.90;;;24.07;100.00;97549.94;4945416;28;20059;-80
2023/07/20 09:21:49;;;;;;;4.22;1.00;;;24.40;99.90;;;24.63;100.00;97544.31;4948869;28;20103;-79
2023/07/20 09:24:20;;;;;;;2.55;0.93;;;25.70;99.90;;;23.35;100.00;97558.53;4946412;28;20055;-79
2023/07/20 09:26:49;;;;;;;4.38;1.17;;;24.50;98.70;;;22.05;100.00;97571.34;4940385;28;20071;-79
2023/07/20 09:29:20;;;;;;;2.70;1.02;;;23.50;99.90;;;22.00;100.00;97557.72;4940359;28;20050;-79
2023/07/20 09:32:04;;;;;;;4.20;1.00;;;23.00;99.90;;;23.13;100.00;97559.75;4912613;28;20689;-79
2023/07/20 09:34:32;;;;;;;6.78;1.25;;;23.70;99.90;;;23.17;100.00;97557.63;4952691;28;20047;-79
2023/07/20 09:37:06;;;;;;;5.47;1.10;;;23.40;99.60;;;23.43;100.00;97551.69;4954656;28;20059;-79
2023/07/20 09:39:45;;;;;;;3.72;1.10;;;23.50;99.80;;;24.17;100.00;97545.38;4953201;28;20119;-79
2023/07/20 09:42:16;;;;;;;3.00;0.95;;;23.60;99.30;;;24.68;100.00;97530.59;4968130;28;20051;-79
2023/07/20 09:44:46;;;;;;;2.45;0.88;;;24.80;98.30;;;23.94;100.00;97545.81;4954319;28;20043;-79
2023/07/20 09:47:22;;;;;;;3.47;0.90;;;24.40;97.60;;;22.97;100.00;97547.09;4947846;28;21209;-80
2023/07/20 09:50:00;;;;;;;4.53;1.00;;;23.60;99.10;;;23.72;100.00;97539.13;4951525;28;20117;-78
2023/07/20 09:52:31;;;;;;;3.85;1.25;;;23.90;99.90;;;23.89;100.00;97537.50;4946233;28;20051;-75
2023/07/20 09:55:03;;;;;;;4.27;1.00;;;23.50;97.70;;;24.27;100.00;97526.72;4926564;28;20055;-76
2023/07/20 09:57:33;;;;;;;3.80;0.98;;;23.60;98.80;;;24.23;100.00;97522.72;4946407;28;20050;-76
2023/07/20 10:00:08;;;;;;;4.85;1.00;;;24.10;97.20;;;26.15;100.00;97516.25;4950412;28;20059;-77
2023/07/20 10:02:45;;;;;;;3.35;0.90;;;25.50;98.30;;;25.92;100.00;97510.75;4950033;28;20055;-76
2023/07/20 10:05:15;;;;;;;4.40;1.10;;;26.30;97.20;;;25.46;100.00;97517.22;4951993;28;20170;-75
2023/07/20 10:07:51;;;;;;;3.35;0.85;;;26.80;94.10;;;24.69;100.00;97508.34;4945650;28;20142;-74
2023/07/20 10:10:42;;;;;;;2.40;0.88;;;26.70;93.70;;;25.27;100.00;97508.69;4947219;28;20065;-75
2023/07/20 10:13:26;;;;;;;5.03;1.20;;;26.10;93.70;;;24.48;100.00;97518.50;4944045;28;20105;-75
2023/07/20 10:16:41;;;;;;;3.20;0.90;;;25.20;94.20;;;23.34;100.00;97521.59;4945162;28;20054;-75
2023/07/20 10:19:26;;;;;;;2.33;0.70;;;24.70;95.60;;;23.41;100.00;97520.03;4947040;28;20047;-76
2023/07/20 10:22:20;;;;;;;4.75;1.02;;;23.60;95.70;;;23.98;100.00;97512.72;4933549;28;20117;-76